createdAt,value
2022-12-08T00:00:31.519Z,12.70
2022-12-08T00:05:48.473Z,9.20
2022-12-08T00:17:17.352Z,9.10
2022-12-08T00:22:16.823Z,5.47
2022-12-08T00:27:40.255Z,7.10
2022-12-08T00:32:38.914Z,7.80
2022-12-08T00:37:38.434Z,6.67
2022-12-08T00:42:36.617Z,5.50
2022-12-08T00:47:34.793Z,4.73
2022-12-08T00:52:32.991Z,4.03
2022-12-08T00:57:33.116Z,4.40
2022-12-08T01:02:33.298Z,5.20
2022-12-08T01:08:22.942Z,4.27
2022-12-08T01:13:22.441Z,3.30
2022-12-08T01:18:20.550Z,7.57
2022-12-08T01:23:24.005Z,5.00
2022-12-08T01:35:12.348Z,3.80
2022-12-08T01:40:11.158Z,6.47
2022-12-08T01:45:16.186Z,4.53
2022-12-08T01:50:17.921Z,3.53
2022-12-08T01:55:21.807Z,3.83
2022-12-08T02:00:22.549Z,3.07
2022-12-08T02:11:46.299Z,3.60
2022-12-08T02:16:52.209Z,3.07
2022-12-08T02:21:59.842Z,3.43
2022-12-08T02:27:19.465Z,2.73
2022-12-08T02:32:35.967Z,4.50
2022-12-08T02:37:39.853Z,4.30
2022-12-08T02:42:43.446Z,3.00
2022-12-08T02:47:42.059Z,3.40
2022-12-08T02:59:52.394Z,4.80
2022-12-08T03:04:59.656Z,3.30
2022-12-08T03:10:05.288Z,2.90
2022-12-08T03:15:10.429Z,6.60
2022-12-08T03:20:12.305Z,3.13
2022-12-08T03:25:14.257Z,3.57
2022-12-08T03:30:33.767Z,2.87
2022-12-08T03:35:34.338Z,5.63
2022-12-08T03:40:32.745Z,3.77
2022-12-08T03:52:27.105Z,4.50
2022-12-08T03:57:25.279Z,3.30
2022-12-08T04:02:23.583Z,6.70
2022-12-08T04:07:21.896Z,4.00
2022-12-08T04:12:21.416Z,2.33
2022-12-08T04:17:19.563Z,3.87
2022-12-08T04:22:17.714Z,3.53
2022-12-08T04:27:15.903Z,3.63
2022-12-08T04:32:15.414Z,3.80
2022-12-08T04:37:13.619Z,3.73
2022-12-08T04:42:11.845Z,3.40
2022-12-08T04:47:10.096Z,5.20
2022-12-08T04:52:09.649Z,3.03
2022-12-08T04:57:07.821Z,2.73
2022-12-08T05:02:06.235Z,3.77
2022-12-08T05:07:40.542Z,8.57
2022-12-08T05:12:38.964Z,2.80
2022-12-08T05:17:37.132Z,3.10
2022-12-08T05:22:35.380Z,3.97
2022-12-08T05:34:02.526Z,2.67
2022-12-08T05:39:01.383Z,2.90
2022-12-08T05:43:59.530Z,2.90
2022-12-08T05:49:00.729Z,2.73
2022-12-08T05:53:59.178Z,2.63
2022-12-08T05:58:57.299Z,2.37
2022-12-08T06:03:56.211Z,3.27
2022-12-08T06:08:56.103Z,2.60
2022-12-08T06:13:54.651Z,2.13
2022-12-08T06:18:53.109Z,2.67
2022-12-08T06:23:53.174Z,2.30
2022-12-08T06:28:53.258Z,2.47
2022-12-08T06:33:51.685Z,2.20
2022-12-08T06:38:50.083Z,2.13
2022-12-08T06:43:48.323Z,3.07
2022-12-08T06:48:48.243Z,3.50
2022-12-08T06:53:47.326Z,2.13
2022-12-08T06:58:51.868Z,2.67
2022-12-08T07:03:52.198Z,2.40
2022-12-08T07:08:50.409Z,2.73
2022-12-08T07:13:48.664Z,2.60
2022-12-08T07:18:46.868Z,2.27
2022-12-08T07:23:49.278Z,2.50
2022-12-08T07:28:52.309Z,2.67
2022-12-08T07:33:51.340Z,2.63
2022-12-08T07:38:53.153Z,2.60
2022-12-08T07:43:58.326Z,2.57
2022-12-08T07:48:57.160Z,3.47
2022-12-08T07:53:56.703Z,3.90
2022-12-08T07:58:54.929Z,5.23
2022-12-08T08:03:53.501Z,5.43
2022-12-08T08:08:51.658Z,3.70
2022-12-08T08:13:51.325Z,3.83
2022-12-08T08:18:50.660Z,2.13
2022-12-08T08:23:48.835Z,2.47
2022-12-08T08:28:48.195Z,3.70
2022-12-08T08:33:48.791Z,2.80
2022-12-08T08:38:47.008Z,3.43
2022-12-08T08:43:45.192Z,3.70
2022-12-08T08:48:43.449Z,4.00
2022-12-08T08:53:43.381Z,3.70
2022-12-08T08:58:41.635Z,4.87
2022-12-08T09:04:42.561Z,3.77
2022-12-08T09:16:08.156Z,4.90
2022-12-08T09:21:07.283Z,4.67
2022-12-08T09:26:06.540Z,5.73
2022-12-08T09:31:06.641Z,7.50
2022-12-08T09:42:59.733Z,6.30
2022-12-08T09:48:09.122Z,5.33
2022-12-08T09:53:13.268Z,8.43
2022-12-08T09:58:20.711Z,7.37
2022-12-08T10:03:22.259Z,7.80
2022-12-08T10:08:29.127Z,6.83
2022-12-08T10:14:08.838Z,7.40
2022-12-08T10:26:06.835Z,7.47
2022-12-08T10:31:05.097Z,6.23
2022-12-08T10:42:39.112Z,4.13
2022-12-08T10:47:44.831Z,2.63
2022-12-08T10:52:43.626Z,3.03
2022-12-08T10:57:43.380Z,5.60
2022-12-08T11:03:07.330Z,2.17
2022-12-08T11:08:49.652Z,2.70
2022-12-08T11:13:51.331Z,3.70
2022-12-08T11:18:57.758Z,3.90
2022-12-08T11:23:55.886Z,2.83
2022-12-08T11:28:55.522Z,1.00
2022-12-08T11:33:54.536Z,1.60
2022-12-08T11:38:57.317Z,1.37
2022-12-08T11:44:03.565Z,1.63
2022-12-08T11:49:06.943Z,1.07
2022-12-08T11:54:14.637Z,1.57
2022-12-08T11:59:20.665Z,1.10
2022-12-08T12:04:26.890Z,1.93
2022-12-08T12:09:37.565Z,2.00
2022-12-08T12:15:14.542Z,1.40
2022-12-08T12:20:20.641Z,3.70
2022-12-08T12:25:22.156Z,0.93
2022-12-08T12:30:24.468Z,0.83
2022-12-08T12:35:32.408Z,0.93
2022-12-08T12:40:40.771Z,0.73
2022-12-08T12:45:43.862Z,1.53
2022-12-08T12:50:46.844Z,4.33
2022-12-08T13:02:48.760Z,3.90
2022-12-08T13:08:08.000Z,1.40
2022-12-08T13:13:17.369Z,2.90
2022-12-08T13:18:21.934Z,2.50
2022-12-08T13:23:48.334Z,1.87
2022-12-08T13:29:24.697Z,0.80
2022-12-08T13:41:48.803Z,6.33
2022-12-08T13:47:17.187Z,1.23
2022-12-08T13:53:49.650Z,3.17
2022-12-08T13:57:37.781Z,2.37
2022-12-08T14:02:43.760Z,1.17
2022-12-08T14:07:50.901Z,1.50
2022-12-08T14:13:01.710Z,1.50
2022-12-08T14:24:35.936Z,1.93
2022-12-08T14:29:44.982Z,3.90
2022-12-08T14:34:43.803Z,2.60
2022-12-08T14:39:42.438Z,5.80
2022-12-08T14:44:42.385Z,2.20
2022-12-08T14:49:44.522Z,3.33
2022-12-08T14:54:45.480Z,1.80
2022-12-08T14:59:46.556Z,1.73
2022-12-08T15:04:47.913Z,2.03
2022-12-08T15:09:48.843Z,1.60
2022-12-08T15:14:59.248Z,28.00
2022-12-08T15:19:58.130Z,15.30
2022-12-08T15:24:57.154Z,13.20
2022-12-08T15:29:56.665Z,12.17
2022-12-08T15:34:54.823Z,2.83
2022-12-08T15:39:53.299Z,1.53
2022-12-08T15:44:51.596Z,0.90
2022-12-08T15:49:52.585Z,0.90
2022-12-08T15:54:50.865Z,1.33
2022-12-08T15:59:49.178Z,1.50
2022-12-08T16:12:09.350Z,5.80
2022-12-08T16:17:09.219Z,5.90
2022-12-08T16:28:00.060Z,6.27
2022-12-08T16:32:47.749Z,5.30
2022-12-08T16:37:46.134Z,8.10
2022-12-08T16:42:46.520Z,4.77
2022-12-08T16:47:48.274Z,8.23
2022-12-08T16:52:46.735Z,5.60
2022-12-08T16:57:47.239Z,8.07
2022-12-08T17:02:46.182Z,6.37
2022-12-08T17:07:45.482Z,8.40
2022-12-08T17:12:45.138Z,8.30
2022-12-08T17:18:16.006Z,8.63
2022-12-08T17:23:14.210Z,9.10
2022-12-08T17:28:22.479Z,5.40
2022-12-08T17:40:28.428Z,11.67
2022-12-08T17:45:28.095Z,6.77
2022-12-08T17:50:26.308Z,7.20
2022-12-08T17:55:24.506Z,12.53
2022-12-08T18:01:13.286Z,8.50
2022-12-08T18:06:14.147Z,8.10
2022-12-08T18:11:14.238Z,12.20
2022-12-08T18:29:39.982Z,15.50
2022-12-08T18:34:38.164Z,11.50
2022-12-08T18:39:37.514Z,10.27
2022-12-08T18:44:35.764Z,13.67
2022-12-08T18:49:35.256Z,13.53
2022-12-08T18:54:58.194Z,8.80
2022-12-08T18:59:51.739Z,10.70
2022-12-08T19:04:51.328Z,12.57
2022-12-08T19:09:49.568Z,12.37
2022-12-08T19:14:47.718Z,15.17
2022-12-08T19:19:45.961Z,12.80
2022-12-08T19:24:45.687Z,13.90
2022-12-08T19:29:43.829Z,13.73
2022-12-08T19:34:42.119Z,14.70
2022-12-08T19:39:58.104Z,17.60
2022-12-08T19:44:59.375Z,13.83
2022-12-08T19:50:17.826Z,19.80
2022-12-08T19:55:16.064Z,16.43
2022-12-08T20:00:17.124Z,15.03
2022-12-08T20:05:15.847Z,10.00
2022-12-08T20:10:21.171Z,16.57
2022-12-08T20:15:20.849Z,12.27
2022-12-08T20:20:19.107Z,12.63
2022-12-08T20:25:17.486Z,14.00
2022-12-08T20:30:17.440Z,12.57
2022-12-08T20:35:17.676Z,22.53
2022-12-08T20:40:16.013Z,20.03
2022-12-08T20:45:14.357Z,7.90
2022-12-08T20:50:13.047Z,12.10
2022-12-08T20:55:12.731Z,18.13
2022-12-08T21:00:12.796Z,17.97
2022-12-08T21:05:11.240Z,16.17
2022-12-08T21:10:11.289Z,12.13
2022-12-08T21:15:13.294Z,18.90
2022-12-08T21:20:12.160Z,17.47
2022-12-08T21:25:10.883Z,20.70
2022-12-08T21:30:12.545Z,19.97
2022-12-08T21:35:11.228Z,20.30
2022-12-08T21:40:10.755Z,26.93
2022-12-08T21:45:11.884Z,14.20
2022-12-08T21:50:12.042Z,17.83
2022-12-08T21:55:13.070Z,13.70
2022-12-08T22:00:16.731Z,20.80
2022-12-08T22:05:15.313Z,20.93
2022-12-08T22:10:13.777Z,10.70
2022-12-08T22:15:14.120Z,19.57
2022-12-08T22:20:14.723Z,6.43
2022-12-08T22:25:13.226Z,7.90
2022-12-08T22:30:13.491Z,7.73
2022-12-08T22:35:12.072Z,24.43
2022-12-08T22:40:12.121Z,13.10
2022-12-08T22:52:22.110Z,7.47
2022-12-08T22:57:20.497Z,28.97
2022-12-08T23:02:18.674Z,16.93
2022-12-08T23:07:16.912Z,11.87
2022-12-08T23:12:18.867Z,11.63
2022-12-08T23:44:11.995Z,16.70
2022-12-08T23:49:10.169Z,7.23
2022-12-08T23:54:08.846Z,7.83
2022-12-08T23:59:07.132Z,8.30
